createdAt,value
2018-07-11T00:02:31.272Z,10.17
2018-07-11T00:06:34.712Z,9.80
2018-07-11T00:10:38.116Z,8.40
2018-07-11T00:14:41.505Z,8.73
2018-07-11T00:18:44.902Z,8.80
2018-07-11T00:22:48.303Z,8.57
2018-07-11T00:26:51.713Z,8.30
2018-07-11T00:30:55.288Z,9.53
2018-07-11T00:34:58.681Z,8.70
2018-07-11T00:39:02.227Z,8.27
2018-07-11T00:43:05.689Z,7.70
2018-07-11T00:47:09.085Z,7.77
2018-07-11T00:51:12.565Z,7.30
2018-07-11T00:55:15.973Z,6.97
2018-07-11T00:59:23.747Z,6.07
2018-07-11T01:03:27.141Z,4.47
2018-07-11T01:07:30.802Z,5.00
2018-07-11T01:11:36.306Z,5.40
2018-07-11T01:15:39.689Z,5.67
2018-07-11T01:19:44.049Z,7.77
2018-07-11T01:23:47.411Z,6.07
2018-07-11T01:27:50.771Z,7.13
2018-07-11T01:31:54.282Z,8.60
2018-07-11T01:35:57.642Z,8.63
2018-07-11T01:40:00.991Z,9.00
2018-07-11T01:44:04.381Z,9.17
2018-07-11T01:48:07.776Z,8.70
2018-07-11T01:52:22.471Z,9.43
2018-07-11T01:56:26.513Z,9.00
2018-07-11T02:00:30.763Z,9.07
2018-07-11T02:04:35.985Z,9.87
2018-07-11T02:08:42.387Z,10.23
2018-07-11T02:12:45.795Z,10.23
2018-07-11T02:16:49.215Z,10.63
2018-07-11T02:20:52.674Z,10.40
2018-07-11T02:24:56.107Z,11.23
2018-07-11T02:29:00.264Z,10.83
2018-07-11T02:33:03.342Z,11.40
2018-07-11T02:37:06.707Z,10.90
2018-07-11T02:41:10.112Z,10.43
2018-07-11T02:45:13.476Z,10.53
2018-07-11T02:49:16.905Z,10.00
2018-07-11T02:53:24.168Z,10.53
2018-07-11T02:57:27.593Z,10.63
2018-07-11T03:01:30.966Z,11.30
2018-07-11T03:05:35.130Z,11.47
2018-07-11T03:09:38.507Z,11.53
2018-07-11T03:13:42.080Z,10.20
2018-07-11T03:17:45.441Z,11.80
2018-07-11T03:21:48.920Z,12.10
2018-07-11T03:25:52.809Z,11.70
2018-07-11T03:29:56.199Z,12.63
2018-07-11T03:33:59.596Z,12.50
2018-07-11T03:38:03.024Z,11.83
2018-07-11T03:42:06.393Z,12.07
2018-07-11T03:46:09.747Z,11.80
2018-07-11T03:50:13.107Z,12.03
2018-07-11T03:54:16.471Z,12.67
2018-07-11T03:58:19.820Z,12.73
2018-07-11T04:02:23.175Z,12.63
2018-07-11T04:06:26.519Z,11.40
2018-07-11T04:10:29.892Z,12.57
2018-07-11T04:14:33.260Z,13.07
2018-07-11T04:18:36.587Z,12.50
2018-07-11T04:22:39.914Z,11.73
2018-07-11T04:26:43.262Z,13.40
2018-07-11T04:30:46.749Z,12.50
2018-07-11T04:34:50.100Z,12.53
2018-07-11T04:38:53.477Z,12.10
2018-07-11T04:42:56.835Z,13.57
2018-07-11T04:47:00.202Z,12.07
2018-07-11T04:51:03.707Z,12.33
2018-07-11T04:55:07.173Z,11.50
2018-07-11T04:59:10.513Z,13.17
2018-07-11T05:03:13.842Z,12.13
2018-07-11T05:07:17.159Z,11.27
2018-07-11T05:11:20.474Z,11.33
2018-07-11T05:15:23.834Z,11.33
2018-07-11T05:19:27.168Z,11.30
2018-07-11T05:23:30.523Z,10.47
2018-07-11T05:27:33.904Z,12.10
2018-07-11T05:31:37.258Z,11.90
2018-07-11T05:35:40.610Z,11.50
2018-07-11T05:39:43.976Z,11.43
2018-07-11T05:43:47.351Z,12.10
2018-07-11T05:47:50.871Z,11.10
2018-07-11T05:51:54.290Z,12.23
2018-07-11T05:55:57.645Z,12.83
2018-07-11T06:00:01.027Z,11.60
2018-07-11T06:04:04.344Z,12.20
2018-07-11T06:08:07.971Z,12.93
2018-07-11T06:12:11.302Z,11.87
2018-07-11T06:16:14.719Z,12.97
2018-07-11T06:20:18.074Z,12.47
2018-07-11T06:24:21.568Z,11.53
2018-07-11T06:28:24.890Z,13.77
2018-07-11T06:32:28.234Z,11.97
2018-07-11T06:36:31.592Z,13.83
2018-07-11T06:40:34.951Z,12.70
2018-07-11T06:44:38.300Z,13.43
2018-07-11T06:48:41.611Z,13.43
2018-07-11T06:52:44.955Z,13.87
2018-07-11T06:56:48.406Z,16.40
2018-07-11T07:00:51.883Z,16.57
2018-07-11T07:04:55.212Z,17.17
2018-07-11T07:08:58.534Z,15.73
2018-07-11T07:13:01.879Z,17.00
2018-07-11T07:17:05.251Z,19.20
2018-07-11T07:21:08.606Z,19.00
2018-07-11T07:25:12.084Z,19.47
2018-07-11T07:29:15.411Z,19.87
2018-07-11T07:33:18.779Z,21.07
2018-07-11T07:37:22.324Z,20.20
2018-07-11T07:41:25.670Z,23.80
2018-07-11T07:45:29.054Z,24.23
2018-07-11T07:49:32.783Z,23.87
2018-07-11T07:53:36.148Z,24.23
2018-07-11T07:57:39.854Z,24.27
2018-07-11T08:01:43.185Z,23.17
2018-07-11T08:05:46.564Z,25.00
2018-07-11T08:09:49.926Z,23.30
2018-07-11T08:13:53.280Z,22.20
2018-07-11T08:17:56.610Z,23.03
2018-07-11T08:22:10.052Z,22.97
2018-07-11T08:26:25.414Z,22.73
2018-07-11T08:30:41.308Z,24.20
2018-07-11T08:35:02.881Z,22.47
2018-07-11T08:43:25.245Z,23.07
2018-07-11T08:47:47.386Z,22.13
2018-07-11T08:52:16.064Z,18.90
2018-07-11T08:58:35.932Z,21.07
2018-07-11T09:03:49.821Z,23.43
2018-07-11T09:08:05.425Z,23.93
2018-07-11T09:12:13.578Z,24.30
2018-07-11T09:16:25.431Z,24.07
2018-07-11T09:20:45.233Z,24.27
2018-07-11T09:24:49.738Z,25.07
2018-07-11T09:28:53.222Z,24.37
2018-07-11T09:32:56.614Z,23.60
2018-07-11T09:36:59.982Z,22.80
2018-07-11T09:41:03.045Z,23.43
2018-07-11T09:45:06.419Z,22.77
2018-07-11T09:49:09.852Z,21.03
2018-07-11T09:53:13.228Z,21.70
2018-07-11T09:57:17.503Z,18.67
2018-07-11T10:01:24.307Z,17.40
2018-07-11T10:05:27.678Z,16.70
2018-07-11T10:09:31.046Z,13.90
2018-07-11T10:13:34.419Z,14.53
2018-07-11T10:17:38.028Z,13.57
2018-07-11T10:21:41.185Z,14.33
2018-07-11T10:25:45.110Z,15.10
2018-07-11T10:29:48.523Z,14.40
2018-07-11T10:33:51.877Z,15.80
2018-07-11T10:37:55.219Z,15.80
2018-07-11T10:41:58.551Z,16.23
2018-07-11T10:46:01.898Z,18.30
2018-07-11T10:54:12.771Z,18.33
2018-07-11T10:58:16.123Z,19.10
2018-07-11T11:02:22.019Z,17.47
2018-07-11T11:06:25.348Z,16.70
2018-07-11T11:10:28.675Z,16.17
2018-07-11T11:14:32.072Z,17.33
2018-07-11T11:18:35.459Z,17.40
2018-07-11T11:22:38.832Z,17.37
2018-07-11T11:26:42.212Z,18.30
2018-07-11T11:30:45.671Z,19.93
2018-07-11T11:34:49.067Z,19.50
2018-07-11T11:38:52.427Z,20.30
2018-07-11T11:42:55.820Z,20.73
2018-07-11T11:47:02.245Z,25.27
2018-07-11T11:51:05.707Z,22.60
2018-07-11T11:55:09.024Z,23.77
2018-07-11T11:59:12.412Z,26.93
2018-07-11T12:03:15.746Z,34.67
2018-07-11T12:07:19.181Z,26.37
2018-07-11T12:11:22.434Z,23.47
2018-07-11T12:15:25.795Z,23.17
2018-07-11T12:19:29.175Z,18.87
2018-07-11T12:23:32.588Z,17.43
2018-07-11T12:27:35.970Z,17.57
2018-07-11T12:31:39.287Z,15.97
2018-07-11T12:35:42.671Z,16.83
2018-07-11T12:39:46.576Z,18.20
2018-07-11T12:43:49.931Z,18.73
2018-07-11T12:47:58.655Z,15.43
2018-07-11T12:52:02.014Z,15.87
2018-07-11T12:56:05.396Z,13.67
2018-07-11T13:00:08.750Z,13.13
2018-07-11T13:04:12.183Z,17.43
2018-07-11T13:08:17.039Z,13.57
2018-07-11T13:12:20.347Z,11.60
2018-07-11T13:16:23.758Z,8.40
2018-07-11T13:20:27.080Z,7.50
2018-07-11T13:24:30.577Z,6.10
2018-07-11T13:28:33.979Z,9.03
2018-07-11T13:32:37.337Z,9.27
2018-07-11T13:36:41.650Z,9.60
2018-07-11T13:40:45.104Z,9.07
2018-07-11T13:44:49.086Z,10.37
2018-07-11T13:48:52.650Z,6.93
2018-07-11T13:52:56.771Z,6.40
2018-07-11T13:57:01.391Z,5.70
2018-07-11T14:01:04.838Z,5.17
2018-07-11T14:05:08.203Z,5.70
2018-07-11T14:09:11.583Z,5.77
2018-07-11T14:13:15.004Z,6.80
2018-07-11T14:17:18.496Z,10.20
2018-07-11T14:21:33.680Z,10.40
2018-07-11T14:25:40.427Z,9.90
2018-07-11T14:29:44.861Z,9.20
2018-07-11T14:33:49.595Z,8.37
2018-07-11T14:37:52.948Z,10.10
2018-07-11T14:41:56.371Z,9.87
2018-07-11T14:45:59.803Z,10.83
2018-07-11T14:50:07.663Z,10.47
2018-07-11T14:54:11.007Z,9.37
2018-07-11T14:58:14.468Z,9.40
2018-07-11T15:02:17.808Z,9.33
2018-07-11T15:06:21.660Z,10.03
2018-07-11T15:10:25.563Z,9.50
2018-07-11T15:14:28.961Z,9.57
2018-07-11T15:18:32.372Z,9.60
2018-07-11T15:22:35.775Z,9.23
2018-07-11T15:26:40.526Z,9.27
2018-07-11T15:30:44.516Z,10.70
2018-07-11T15:34:47.912Z,9.90
2018-07-11T15:38:51.326Z,9.80
2018-07-11T15:42:54.738Z,9.70
2018-07-11T15:46:58.125Z,9.67
2018-07-11T15:51:01.553Z,9.67
2018-07-11T15:55:05.376Z,8.70
2018-07-11T15:59:10.110Z,8.87
2018-07-11T16:03:14.248Z,8.73
2018-07-11T16:07:17.853Z,9.03
2018-07-11T16:11:21.269Z,9.73
2018-07-11T16:15:24.656Z,9.57
2018-07-11T16:19:28.056Z,9.07
2018-07-11T16:23:31.446Z,8.90
2018-07-11T16:27:34.807Z,9.00
2018-07-11T16:31:38.181Z,8.07
2018-07-11T16:35:41.555Z,8.27
2018-07-11T16:39:44.995Z,7.83
2018-07-11T16:43:48.280Z,8.43
2018-07-11T16:47:51.647Z,8.40
2018-07-11T16:51:55.033Z,8.77
2018-07-11T16:55:58.767Z,8.03
2018-07-11T17:00:07.489Z,9.50
2018-07-11T17:04:12.104Z,10.50
2018-07-11T17:08:17.343Z,10.90
2018-07-11T17:12:20.803Z,10.53
2018-07-11T17:16:31.563Z,10.07
2018-07-11T17:20:35.095Z,12.58
2018-07-11T17:24:40.896Z,11.80
2018-07-11T17:28:44.303Z,10.83
2018-07-11T17:32:47.682Z,11.87
2018-07-11T17:36:57.519Z,11.47
2018-07-11T17:41:01.987Z,11.80
2018-07-11T17:45:16.772Z,12.17
2018-07-11T17:49:25.748Z,12.77
2018-07-11T17:53:35.048Z,13.23
2018-07-11T17:57:45.278Z,14.00
2018-07-11T18:01:50.826Z,14.43
2018-07-11T18:06:02.404Z,16.17
2018-07-11T18:10:06.958Z,14.30
2018-07-11T18:14:10.377Z,14.00
2018-07-11T18:18:25.042Z,15.33
2018-07-11T18:23:35.959Z,14.77
2018-07-11T18:27:50.608Z,15.23
2018-07-11T18:33:07.854Z,16.27
2018-07-11T18:37:19.805Z,15.97
2018-07-11T18:42:36.715Z,15.80
2018-07-11T18:47:17.447Z,14.97
2018-07-11T18:51:29.370Z,15.97
2018-07-11T18:55:39.160Z,15.03
2018-07-11T18:59:53.865Z,14.03
2018-07-11T19:04:08.286Z,15.20
2018-07-11T19:08:23.432Z,16.10
2018-07-11T19:12:29.175Z,16.67
2018-07-11T19:16:44.471Z,16.27
2018-07-11T19:22:02.861Z,15.47
2018-07-11T19:26:20.731Z,15.87
2018-07-11T19:30:34.276Z,15.67
2018-07-11T19:34:46.356Z,14.73
2018-07-11T19:39:00.573Z,15.93
2018-07-11T19:45:19.113Z,15.13
2018-07-11T19:49:37.182Z,15.00
2018-07-11T19:54:52.223Z,15.77
2018-07-11T19:58:55.678Z,14.77
2018-07-11T20:02:59.336Z,14.20
2018-07-11T20:07:04.237Z,13.30
2018-07-11T20:11:07.719Z,12.20
2018-07-11T20:15:11.720Z,13.50
2018-07-11T20:19:15.215Z,11.73
2018-07-11T20:23:19.501Z,12.83
2018-07-11T20:27:30.035Z,9.93
2018-07-11T20:31:33.228Z,10.60
2018-07-11T20:35:36.625Z,10.80
2018-07-11T20:39:40.715Z,10.40
2018-07-11T20:43:47.062Z,10.50
2018-07-11T20:47:52.952Z,10.70
2018-07-11T20:51:58.309Z,11.17
2018-07-11T20:56:03.346Z,12.60
2018-07-11T21:00:18.922Z,9.73
2018-07-11T21:04:33.721Z,9.00
2018-07-11T21:10:53.146Z,7.80
2018-07-11T21:16:18.343Z,6.63
2018-07-11T21:20:23.489Z,6.97
2018-07-11T21:24:27.629Z,7.07
2018-07-11T21:28:32.395Z,7.17
2018-07-11T21:32:36.976Z,9.07
2018-07-11T21:36:41.937Z,11.57
2018-07-11T21:40:46.509Z,12.80
2018-07-11T21:44:51.365Z,11.50
2018-07-11T21:48:55.383Z,12.37
2018-07-11T21:53:00.387Z,13.73
2018-07-11T21:57:04.591Z,13.83
2018-07-11T22:01:10.890Z,15.93
2018-07-11T22:05:15.433Z,15.20
2018-07-11T22:09:20.475Z,16.30
2018-07-11T22:13:23.904Z,18.63
2018-07-11T22:18:39.668Z,17.70
2018-07-11T22:22:42.071Z,17.87
2018-07-11T22:26:45.612Z,20.57
2018-07-11T22:30:49.828Z,21.80
2018-07-11T22:34:52.203Z,18.60
2018-07-11T22:38:54.541Z,19.07
2018-07-11T22:42:56.832Z,20.63
2018-07-11T22:46:59.136Z,19.67
2018-07-11T22:51:01.435Z,21.27
2018-07-11T22:55:03.747Z,18.83
2018-07-11T22:59:06.036Z,22.27
2018-07-11T23:03:08.352Z,21.43
2018-07-11T23:07:10.673Z,21.67
2018-07-11T23:11:12.992Z,20.57
2018-07-11T23:15:15.299Z,21.23
2018-07-11T23:19:17.583Z,21.50
2018-07-11T23:23:19.891Z,21.97
2018-07-11T23:27:22.210Z,20.63
2018-07-11T23:31:24.524Z,25.67
2018-07-11T23:35:26.860Z,27.00
2018-07-11T23:39:29.150Z,24.47
2018-07-11T23:43:31.487Z,24.90
2018-07-11T23:47:33.792Z,26.23
2018-07-11T23:51:36.116Z,27.03
2018-07-11T23:55:38.404Z,28.00
2018-07-11T23:59:40.755Z,30.03
